Briefing drone pour Buxerolles

Rechercher une autre localisation

Conditions de vol :


Nous sommes le : Mardi 13 avril 2021
Il est 09:59 UTC (11:59 LT)

Lever de soleil : 04:47 UTC (06:47 LT)
Coucher de soleil : 19:09 UTC (21:09 LT)

Météo

L'essentiel des conditions de vol

VIGILANCE MÉTÉO FRANCE - Vienne (86)
Pas de vigilances particulieres
CARTES DES FRONTS
METAR de LFBI
LFBI 130930Z AUTO 03010KT CAVOK 08/M01 Q1031 NOSIG

Date d'émission: 13/04/2021
Heure d'émission: 09:30 UTC
Vent: 030° pour 10 KT (19 km/h)
Visibilité horizontale: > 10 km
Plafond : Plafond et visibilité OK (CAVOK)
Température: 8 °C
Point de rosée: -1 °C
Humidité: 53%
Pression (QNH): 1031 hPa
Conditions: Pas de changement dans les 2 heures (NOSIG)
TAF de LFBI
AMD LFBI 130722Z 1307/1406 05005KT CAVOK PROB40 1307/1309 OVC004

Conditions prévues :

Heure d'émission : Bulletin éffectué le 13 à 07:00 UTC
Prévision : Valide du 13 a 07:00 UTC au 14 a 06:00 UTC
Vent : 50° pour 5 KT (9 km/h)
Visibilité : > 10 km
Nuages : Ciel clair

Probabilité : 40 % Prévision : Valide du 01 a 01:00 UTC au 01 a 01:00 UTC
WEBCAM POUR BUXEROLLES

Réglementation

Voler en sécurité

CARTES AERONAUTIQUE 1/500.000
CARTES VAC (LFBI)
SUP AIP




Chargement des AIP...
NOTAM (BUXEROLLES + Terrain à proximité / FIR )




Chargement des NOTAMS...
CONTACT PREFECTURE 86


Avertissement : Les données mises à disposition sont indicatives. Oxygène Drone ne pourra être tenu responsable de dégâts causés aux biens et aux personnes.